sensor_id;sensor_type;location;lat;lon;timestamp;temperature;humidity
23089;DHT22;11713;48.506;8.966;2022-09-24T00:00:43;11.60;99.90
23089;DHT22;11713;48.506;8.966;2022-09-24T00:03:10;11.60;99.90
23089;DHT22;11713;48.506;8.966;2022-09-24T00:05:40;11.60;99.90
23089;DHT22;11713;48.506;8.966;2022-09-24T00:08:06;11.60;99.90
23089;DHT22;11713;48.506;8.966;2022-09-24T00:10:37;11.60;99.90
23089;DHT22;11713;48.506;8.966;2022-09-24T00:13:08;11.60;99.90
23089;DHT22;11713;48.506;8.966;2022-09-24T00:15:36;11.60;99.90
23089;DHT22;11713;48.506;8.966;2022-09-24T00:18:03;11.50;99.90
23089;DHT22;11713;48.506;8.966;2022-09-24T00:20:29;11.50;99.90
23089;DHT22;11713;48.506;8.966;2022-09-24T00:22:56;11.40;99.90
23089;DHT22;11713;48.506;8.966;2022-09-24T00:25:22;11.30;99.90
23089;DHT22;11713;48.506;8.966;2022-09-24T00:28:06;11.30;99.90
23089;DHT22;11713;48.506;8.966;2022-09-24T00:30:32;11.30;99.90
23089;DHT22;11713;48.506;8.966;2022-09-24T00:32:58;11.30;99.90
23089;DHT22;11713;48.506;8.966;2022-09-24T00:35:24;11.30;99.90
23089;DHT22;11713;48.506;8.966;2022-09-24T00:37:50;11.20;99.90
23089;DHT22;11713;48.506;8.966;2022-09-24T00:40:16;11.20;99.90
23089;DHT22;11713;48.506;8.966;2022-09-24T00:42:42;11.10;99.90
23089;DHT22;11713;48.506;8.966;2022-09-24T00:45:09;11.10;99.90
23089;DHT22;11713;48.506;8.966;2022-09-24T00:47:37;11.20;99.90
23089;DHT22;11713;48.506;8.966;2022-09-24T00:50:09;11.20;99.90
23089;DHT22;11713;48.506;8.966;2022-09-24T00:52:44;11.10;99.90
23089;DHT22;11713;48.506;8.966;2022-09-24T00:55:11;11.20;99.90
23089;DHT22;11713;48.506;8.966;2022-09-24T00:57:39;11.10;99.90
23089;DHT22;11713;48.506;8.966;2022-09-24T01:00:07;11.10;99.90
23089;DHT22;11713;48.506;8.966;2022-09-24T01:02:35;11.20;99.90
23089;DHT22;11713;48.506;8.966;2022-09-24T01:05:02;11.20;99.90
23089;DHT22;11713;48.506;8.966;2022-09-24T01:07:28;11.10;99.90
23089;DHT22;11713;48.506;8.966;2022-09-24T01:09:54;11.10;99.90
23089;DHT22;11713;48.506;8.966;2022-09-24T01:15:19;11.10;99.90
23089;DHT22;11713;48.506;8.966;2022-09-24T01:29:41;10.90;99.90
23089;DHT22;11713;48.506;8.966;2022-09-24T01:32:29;10.80;99.90
23089;DHT22;11713;48.506;8.966;2022-09-24T01:37:56;10.70;99.90
23089;DHT22;11713;48.506;8.966;2022-09-24T01:40:24;10.70;99.90
23089;DHT22;11713;48.506;8.966;2022-09-24T01:42:52;10.70;99.90
23089;DHT22;11713;48.506;8.966;2022-09-24T01:45:20;10.70;99.90
23089;DHT22;11713;48.506;8.966;2022-09-24T01:47:47;10.80;99.90
23089;DHT22;11713;48.506;8.966;2022-09-24T01:50:15;10.80;99.90
23089;DHT22;11713;48.506;8.966;2022-09-24T01:55:16;10.80;99.90
23089;DHT22;11713;48.506;8.966;2022-09-24T01:57:48;10.80;99.90
23089;DHT22;11713;48.506;8.966;2022-09-24T02:00:17;10.70;99.90
23089;DHT22;11713;48.506;8.966;2022-09-24T02:03:14;10.70;99.90
23089;DHT22;11713;48.506;8.966;2022-09-24T02:05:50;10.70;99.90
23089;DHT22;11713;48.506;8.966;2022-09-24T02:08:23;10.70;99.90
23089;DHT22;11713;48.506;8.966;2022-09-24T02:11:17;10.60;99.90
23089;DHT22;11713;48.506;8.966;2022-09-24T02:16:32;10.40;99.90
23089;DHT22;11713;48.506;8.966;2022-09-24T02:19:02;10.40;99.90
23089;DHT22;11713;48.506;8.966;2022-09-24T02:21:30;10.40;99.90
23089;DHT22;11713;48.506;8.966;2022-09-24T02:24:09;10.50;99.90
23089;DHT22;11713;48.506;8.966;2022-09-24T02:26:36;10.50;99.90
23089;DHT22;11713;48.506;8.966;2022-09-24T02:29:02;10.50;99.90
23089;DHT22;11713;48.506;8.966;2022-09-24T02:31:41;10.60;99.90
23089;DHT22;11713;48.506;8.966;2022-09-24T02:34:11;10.60;99.90
23089;DHT22;11713;48.506;8.966;2022-09-24T02:36:53;10.60;99.90
23089;DHT22;11713;48.506;8.966;2022-09-24T02:39:20;10.60;99.90
23089;DHT22;11713;48.506;8.966;2022-09-24T02:41:48;10.60;99.90
23089;DHT22;11713;48.506;8.966;2022-09-24T02:44:15;10.60;99.90
23089;DHT22;11713;48.506;8.966;2022-09-24T02:46:42;10.60;99.90
23089;DHT22;11713;48.506;8.966;2022-09-24T02:49:09;10.70;99.90
23089;DHT22;11713;48.506;8.966;2022-09-24T02:51:35;10.70;99.90
23089;DHT22;11713;48.506;8.966;2022-09-24T02:54:01;10.70;99.90
23089;DHT22;11713;48.506;8.966;2022-09-24T02:56:28;10.80;99.90
23089;DHT22;11713;48.506;8.966;2022-09-24T02:58:54;10.80;99.90
23089;DHT22;11713;48.506;8.966;2022-09-24T03:01:20;10.80;99.90
23089;DHT22;11713;48.506;8.966;2022-09-24T03:03:47;10.80;99.90
23089;DHT22;11713;48.506;8.966;2022-09-24T03:06:13;10.80;99.90
23089;DHT22;11713;48.506;8.966;2022-09-24T03:08:42;10.80;99.90
23089;DHT22;11713;48.506;8.966;2022-09-24T03:11:09;10.80;99.90
23089;DHT22;11713;48.506;8.966;2022-09-24T03:13:36;10.80;99.90
23089;DHT22;11713;48.506;8.966;2022-09-24T03:16:04;10.80;99.90
23089;DHT22;11713;48.506;8.966;2022-09-24T03:18:31;10.80;99.90
23089;DHT22;11713;48.506;8.966;2022-09-24T03:21:01;10.80;99.90
23089;DHT22;11713;48.506;8.966;2022-09-24T03:23:27;10.80;99.90
23089;DHT22;11713;48.506;8.966;2022-09-24T03:25:53;10.80;99.90
23089;DHT22;11713;48.506;8.966;2022-09-24T03:28:19;10.80;99.90
23089;DHT22;11713;48.506;8.966;2022-09-24T03:30:45;10.80;99.90
23089;DHT22;11713;48.506;8.966;2022-09-24T03:35:58;10.80;99.90
23089;DHT22;11713;48.506;8.966;2022-09-24T03:38:24;10.80;99.90
23089;DHT22;11713;48.506;8.966;2022-09-24T03:40:50;10.90;99.90
23089;DHT22;11713;48.506;8.966;2022-09-24T03:43:16;10.80;99.90
23089;DHT22;11713;48.506;8.966;2022-09-24T03:45:42;10.80;99.90
23089;DHT22;11713;48.506;8.966;2022-09-24T03:48:08;10.70;99.90
23089;DHT22;11713;48.506;8.966;2022-09-24T03:50:37;10.70;99.90
23089;DHT22;11713;48.506;8.966;2022-09-24T03:53:04;10.70;99.90
23089;DHT22;11713;48.506;8.966;2022-09-24T03:55:29;10.80;99.90
23089;DHT22;11713;48.506;8.966;2022-09-24T03:57:55;10.70;99.90
23089;DHT22;11713;48.506;8.966;2022-09-24T04:00:21;10.80;99.90
23089;DHT22;11713;48.506;8.966;2022-09-24T04:02:48;10.80;99.90
23089;DHT22;11713;48.506;8.966;2022-09-24T04:05:15;10.80;99.90
23089;DHT22;11713;48.506;8.966;2022-09-24T04:07:44;10.70;99.90
23089;DHT22;11713;48.506;8.966;2022-09-24T04:10:10;10.80;99.90
23089;DHT22;11713;48.506;8.966;2022-09-24T04:12:37;10.80;99.90
23089;DHT22;11713;48.506;8.966;2022-09-24T04:15:03;10.80;99.90
23089;DHT22;11713;48.506;8.966;2022-09-24T04:17:29;10.90;99.90
23089;DHT22;11713;48.506;8.966;2022-09-24T04:19:58;10.90;99.90
23089;DHT22;11713;48.506;8.966;2022-09-24T04:22:25;10.90;99.90
23089;DHT22;11713;48.506;8.966;2022-09-24T04:24:52;10.90;99.90
23089;DHT22;11713;48.506;8.966;2022-09-24T04:27:18;10.90;99.90
23089;DHT22;11713;48.506;8.966;2022-09-24T04:29:45;10.90;99.90
23089;DHT22;11713;48.506;8.966;2022-09-24T04:32:11;10.90;99.90
23089;DHT22;11713;48.506;8.966;2022-09-24T04:34:37;10.90;99.90
23089;DHT22;11713;48.506;8.966;2022-09-24T04:37:04;11.00;99.90
23089;DHT22;11713;48.506;8.966;2022-09-24T04:39:30;11.00;99.90
23089;DHT22;11713;48.506;8.966;2022-09-24T04:41:56;11.00;99.90
23089;DHT22;11713;48.506;8.966;2022-09-24T04:44:22;11.00;99.90
23089;DHT22;11713;48.506;8.966;2022-09-24T04:46:48;11.00;99.90
23089;DHT22;11713;48.506;8.966;2022-09-24T04:49:14;11.00;99.90
23089;DHT22;11713;48.506;8.966;2022-09-24T04:51:40;11.00;99.90
23089;DHT22;11713;48.506;8.966;2022-09-24T04:54:07;10.90;99.90
23089;DHT22;11713;48.506;8.966;2022-09-24T04:56:33;10.80;99.90
23089;DHT22;11713;48.506;8.966;2022-09-24T04:58:59;10.80;99.90
23089;DHT22;11713;48.506;8.966;2022-09-24T05:01:25;10.70;99.90
23089;DHT22;11713;48.506;8.966;2022-09-24T05:03:51;10.70;99.90
23089;DHT22;11713;48.506;8.966;2022-09-24T05:06:18;10.70;99.90
23089;DHT22;11713;48.506;8.966;2022-09-24T05:08:43;10.80;99.90
23089;DHT22;11713;48.506;8.966;2022-09-24T05:11:09;10.80;99.90
23089;DHT22;11713;48.506;8.966;2022-09-24T05:13:35;10.80;99.90
23089;DHT22;11713;48.506;8.966;2022-09-24T05:16:02;10.80;99.90
23089;DHT22;11713;48.506;8.966;2022-09-24T05:18:28;10.80;99.90
23089;DHT22;11713;48.506;8.966;2022-09-24T05:20:54;10.80;99.90
23089;DHT22;11713;48.506;8.966;2022-09-24T05:23:20;10.80;99.90
23089;DHT22;11713;48.506;8.966;2022-09-24T05:25:46;10.80;99.90
23089;DHT22;11713;48.506;8.966;2022-09-24T05:28:32;10.80;99.90
23089;DHT22;11713;48.506;8.966;2022-09-24T05:30:58;10.80;99.90
23089;DHT22;11713;48.506;8.966;2022-09-24T05:33:25;10.90;99.90
23089;DHT22;11713;48.506;8.966;2022-09-24T05:35:55;10.90;99.90
23089;DHT22;11713;48.506;8.966;2022-09-24T05:38:23;10.90;99.90
23089;DHT22;11713;48.506;8.966;2022-09-24T05:40:49;11.00;99.90
23089;DHT22;11713;48.506;8.966;2022-09-24T05:43:16;10.90;99.90
23089;DHT22;11713;48.506;8.966;2022-09-24T05:45:44;11.00;99.90
23089;DHT22;11713;48.506;8.966;2022-09-24T05:48:10;11.00;99.90
23089;DHT22;11713;48.506;8.966;2022-09-24T05:50:36;11.00;99.90
23089;DHT22;11713;48.506;8.966;2022-09-24T05:53:03;11.00;99.90
23089;DHT22;11713;48.506;8.966;2022-09-24T05:55:30;11.00;99.90
23089;DHT22;11713;48.506;8.966;2022-09-24T05:58:01;11.10;99.90
23089;DHT22;11713;48.506;8.966;2022-09-24T06:00:28;11.10;99.90
23089;DHT22;11713;48.506;8.966;2022-09-24T06:03:00;11.10;99.90
23089;DHT22;11713;48.506;8.966;2022-09-24T06:05:26;11.10;99.90
23089;DHT22;11713;48.506;8.966;2022-09-24T06:07:53;11.10;99.90
23089;DHT22;11713;48.506;8.966;2022-09-24T06:10:20;11.10;99.90
23089;DHT22;11713;48.506;8.966;2022-09-24T06:12:46;11.10;99.90
23089;DHT22;11713;48.506;8.966;2022-09-24T06:15:13;11.10;99.90
23089;DHT22;11713;48.506;8.966;2022-09-24T06:17:39;11.10;99.90
23089;DHT22;11713;48.506;8.966;2022-09-24T06:20:05;11.20;99.90
23089;DHT22;11713;48.506;8.966;2022-09-24T06:22:31;11.30;99.90
23089;DHT22;11713;48.506;8.966;2022-09-24T06:24:57;11.30;99.90
23089;DHT22;11713;48.506;8.966;2022-09-24T06:27:26;11.40;99.90
23089;DHT22;11713;48.506;8.966;2022-09-24T06:29:52;11.40;99.90
23089;DHT22;11713;48.506;8.966;2022-09-24T06:32:18;11.50;99.90
23089;DHT22;11713;48.506;8.966;2022-09-24T06:34:44;11.50;99.90
23089;DHT22;11713;48.506;8.966;2022-09-24T06:37:10;11.50;99.90
23089;DHT22;11713;48.506;8.966;2022-09-24T06:39:36;11.50;99.90
23089;DHT22;11713;48.506;8.966;2022-09-24T06:42:01;11.60;99.90
23089;DHT22;11713;48.506;8.966;2022-09-24T06:44:35;11.60;99.90
23089;DHT22;11713;48.506;8.966;2022-09-24T06:47:01;11.60;99.90
23089;DHT22;11713;48.506;8.966;2022-09-24T06:49:27;11.70;99.90
23089;DHT22;11713;48.506;8.966;2022-09-24T06:51:54;11.70;99.90
23089;DHT22;11713;48.506;8.966;2022-09-24T06:54:21;11.80;99.90
23089;DHT22;11713;48.506;8.966;2022-09-24T06:56:47;11.80;99.90
23089;DHT22;11713;48.506;8.966;2022-09-24T06:59:13;11.80;99.90
23089;DHT22;11713;48.506;8.966;2022-09-24T07:01:39;11.80;99.90
23089;DHT22;11713;48.506;8.966;2022-09-24T07:04:05;11.80;99.90
23089;DHT22;11713;48.506;8.966;2022-09-24T07:06:33;11.80;99.90
23089;DHT22;11713;48.506;8.966;2022-09-24T07:09:19;11.80;99.90
23089;DHT22;11713;48.506;8.966;2022-09-24T07:11:44;11.80;99.90
23089;DHT22;11713;48.506;8.966;2022-09-24T07:14:12;11.90;99.90
23089;DHT22;11713;48.506;8.966;2022-09-24T07:16:38;11.90;99.90
23089;DHT22;11713;48.506;8.966;2022-09-24T07:19:04;12.00;99.90
23089;DHT22;11713;48.506;8.966;2022-09-24T07:21:30;12.10;99.90
23089;DHT22;11713;48.506;8.966;2022-09-24T07:23:56;12.10;99.90
23089;DHT22;11713;48.506;8.966;2022-09-24T07:26:27;12.20;99.90
23089;DHT22;11713;48.506;8.966;2022-09-24T07:28:56;12.20;99.90
23089;DHT22;11713;48.506;8.966;2022-09-24T07:31:22;12.20;99.90
23089;DHT22;11713;48.506;8.966;2022-09-24T07:33:49;12.20;99.90
23089;DHT22;11713;48.506;8.966;2022-09-24T07:36:16;12.30;99.90
23089;DHT22;11713;48.506;8.966;2022-09-24T07:38:43;12.30;99.90
23089;DHT22;11713;48.506;8.966;2022-09-24T07:41:09;12.40;99.90
23089;DHT22;11713;48.506;8.966;2022-09-24T07:43:35;12.40;99.90
23089;DHT22;11713;48.506;8.966;2022-09-24T07:46:01;12.40;99.90
23089;DHT22;11713;48.506;8.966;2022-09-24T07:48:27;12.50;99.90
23089;DHT22;11713;48.506;8.966;2022-09-24T07:50:53;12.50;99.90
23089;DHT22;11713;48.506;8.966;2022-09-24T07:53:18;12.50;99.90
23089;DHT22;11713;48.506;8.966;2022-09-24T07:55:46;12.50;99.90
23089;DHT22;11713;48.506;8.966;2022-09-24T07:58:13;12.60;99.90
23089;DHT22;11713;48.506;8.966;2022-09-24T08:00:39;12.60;99.90
23089;DHT22;11713;48.506;8.966;2022-09-24T08:03:05;12.60;99.90
23089;DHT22;11713;48.506;8.966;2022-09-24T08:05:32;12.60;99.90
23089;DHT22;11713;48.506;8.966;2022-09-24T08:07:58;12.60;99.90
23089;DHT22;11713;48.506;8.966;2022-09-24T08:10:26;12.70;99.90
23089;DHT22;11713;48.506;8.966;2022-09-24T08:12:53;12.70;99.90
23089;DHT22;11713;48.506;8.966;2022-09-24T08:15:21;12.70;99.90
23089;DHT22;11713;48.506;8.966;2022-09-24T08:17:47;12.70;99.90
23089;DHT22;11713;48.506;8.966;2022-09-24T08:20:13;12.70;99.90
23089;DHT22;11713;48.506;8.966;2022-09-24T08:22:39;12.70;99.90
23089;DHT22;11713;48.506;8.966;2022-09-24T08:25:05;12.70;99.90
23089;DHT22;11713;48.506;8.966;2022-09-24T08:27:31;12.70;99.90
23089;DHT22;11713;48.506;8.966;2022-09-24T08:29:58;12.70;99.90
23089;DHT22;11713;48.506;8.966;2022-09-24T08:32:25;12.70;99.90
23089;DHT22;11713;48.506;8.966;2022-09-24T08:34:51;12.70;99.90
23089;DHT22;11713;48.506;8.966;2022-09-24T08:37:17;12.70;99.90
23089;DHT22;11713;48.506;8.966;2022-09-24T08:39:43;12.70;99.90
23089;DHT22;11713;48.506;8.966;2022-09-24T08:42:45;12.70;99.90
23089;DHT22;11713;48.506;8.966;2022-09-24T08:45:15;12.70;99.90
23089;DHT22;11713;48.506;8.966;2022-09-24T08:48:18;12.70;99.90
23089;DHT22;11713;48.506;8.966;2022-09-24T08:51:06;12.80;99.90
23089;DHT22;11713;48.506;8.966;2022-09-24T08:56:27;12.80;99.90
23089;DHT22;11713;48.506;8.966;2022-09-24T08:58:59;12.90;99.90
23089;DHT22;11713;48.506;8.966;2022-09-24T09:01:34;12.90;99.90
23089;DHT22;11713;48.506;8.966;2022-09-24T09:04:19;12.90;99.90
23089;DHT22;11713;48.506;8.966;2022-09-24T09:07:22;13.00;99.90
23089;DHT22;11713;48.506;8.966;2022-09-24T09:10:14;13.00;99.90
23089;DHT22;11713;48.506;8.966;2022-09-24T09:12:55;13.00;99.90
23089;DHT22;11713;48.506;8.966;2022-09-24T09:15:28;13.00;99.90
23089;DHT22;11713;48.506;8.966;2022-09-24T09:18:12;13.00;99.90
23089;DHT22;11713;48.506;8.966;2022-09-24T09:20:43;13.00;99.90
23089;DHT22;11713;48.506;8.966;2022-09-24T09:25:57;13.00;99.90
23089;DHT22;11713;48.506;8.966;2022-09-24T09:28:28;13.00;99.90
23089;DHT22;11713;48.506;8.966;2022-09-24T09:31:06;13.10;99.90
23089;DHT22;11713;48.506;8.966;2022-09-24T09:42:40;13.20;99.90
23089;DHT22;11713;48.506;8.966;2022-09-24T09:45:30;13.20;99.90
23089;DHT22;11713;48.506;8.966;2022-09-24T09:47:58;13.30;99.90
23089;DHT22;11713;48.506;8.966;2022-09-24T09:53:27;13.40;99.90
23089;DHT22;11713;48.506;8.966;2022-09-24T09:56:05;13.40;99.90
23089;DHT22;11713;48.506;8.966;2022-09-24T09:58:36;13.50;99.90
23089;DHT22;11713;48.506;8.966;2022-09-24T10:01:13;13.50;99.90
23089;DHT22;11713;48.506;8.966;2022-09-24T10:06:21;13.50;99.90
23089;DHT22;11713;48.506;8.966;2022-09-24T10:08:47;13.60;99.90
23089;DHT22;11713;48.506;8.966;2022-09-24T10:11:14;13.60;99.90
23089;DHT22;11713;48.506;8.966;2022-09-24T10:13:41;13.70;99.90
23089;DHT22;11713;48.506;8.966;2022-09-24T10:16:08;13.80;99.90
23089;DHT22;11713;48.506;8.966;2022-09-24T10:18:53;13.90;99.90
23089;DHT22;11713;48.506;8.966;2022-09-24T10:21:35;14.00;99.90
23089;DHT22;11713;48.506;8.966;2022-09-24T10:24:10;14.10;99.90
23089;DHT22;11713;48.506;8.966;2022-09-24T10:26:41;14.20;99.90
23089;DHT22;11713;48.506;8.966;2022-09-24T10:29:23;14.30;99.90
23089;DHT22;11713;48.506;8.966;2022-09-24T10:32:21;14.50;99.90
23089;DHT22;11713;48.506;8.966;2022-09-24T10:34:59;14.60;99.90
23089;DHT22;11713;48.506;8.966;2022-09-24T10:37:26;14.70;99.90
23089;DHT22;11713;48.506;8.966;2022-09-24T10:40:00;14.80;99.90
23089;DHT22;11713;48.506;8.966;2022-09-24T10:42:28;15.00;99.90
23089;DHT22;11713;48.506;8.966;2022-09-24T10:44:58;15.10;99.90
23089;DHT22;11713;48.506;8.966;2022-09-24T10:55:38;15.50;99.90
23089;DHT22;11713;48.506;8.966;2022-09-24T11:17:40;16.80;99.90
23089;DHT22;11713;48.506;8.966;2022-09-24T11:20:36;16.90;99.90
23089;DHT22;11713;48.506;8.966;2022-09-24T11:26:08;16.90;99.90
23089;DHT22;11713;48.506;8.966;2022-09-24T11:31:39;16.80;99.90
23089;DHT22;11713;48.506;8.966;2022-09-24T11:56:41;16.40;99.90
23089;DHT22;11713;48.506;8.966;2022-09-24T11:59:22;16.40;99.90
23089;DHT22;11713;48.506;8.966;2022-09-24T12:02:04;16.50;99.90
23089;DHT22;11713;48.506;8.966;2022-09-24T12:07:17;16.50;99.90
23089;DHT22;11713;48.506;8.966;2022-09-24T12:09:58;16.50;99.90
23089;DHT22;11713;48.506;8.966;2022-09-24T12:12:31;16.50;99.90
23089;DHT22;11713;48.506;8.966;2022-09-24T12:17:57;16.60;99.90
23089;DHT22;11713;48.506;8.966;2022-09-24T12:20:29;16.60;99.90
23089;DHT22;11713;48.506;8.966;2022-09-24T12:23:07;16.60;99.90
23089;DHT22;11713;48.506;8.966;2022-09-24T12:25:43;16.50;99.90
23089;DHT22;11713;48.506;8.966;2022-09-24T12:28:15;16.50;99.90
23089;DHT22;11713;48.506;8.966;2022-09-24T12:31:14;16.50;99.90
23089;DHT22;11713;48.506;8.966;2022-09-24T12:34:10;16.40;99.90
23089;DHT22;11713;48.506;8.966;2022-09-24T12:37:06;16.30;99.90
23089;DHT22;11713;48.506;8.966;2022-09-24T12:42:15;16.20;99.90
23089;DHT22;11713;48.506;8.966;2022-09-24T12:44:58;16.10;99.90
23089;DHT22;11713;48.506;8.966;2022-09-24T12:47:27;16.10;99.90
23089;DHT22;11713;48.506;8.966;2022-09-24T12:50:02;16.10;99.90
23089;DHT22;11713;48.506;8.966;2022-09-24T12:55:02;16.10;99.90
23089;DHT22;11713;48.506;8.966;2022-09-24T12:57:35;16.10;99.90
23089;DHT22;11713;48.506;8.966;2022-09-24T13:00:31;16.10;99.90
23089;DHT22;11713;48.506;8.966;2022-09-24T13:02:50;16.00;99.90
23089;DHT22;11713;48.506;8.966;2022-09-24T13:08:22;16.00;99.90
23089;DHT22;11713;48.506;8.966;2022-09-24T13:10:59;16.00;99.90
23089;DHT22;11713;48.506;8.966;2022-09-24T13:13:29;16.00;99.90
23089;DHT22;11713;48.506;8.966;2022-09-24T13:16:19;15.90;99.90
23089;DHT22;11713;48.506;8.966;2022-09-24T13:18:54;15.90;99.90
23089;DHT22;11713;48.506;8.966;2022-09-24T13:21:27;15.90;99.90
23089;DHT22;11713;48.506;8.966;2022-09-24T13:23:57;15.90;99.90
23089;DHT22;11713;48.506;8.966;2022-09-24T13:27:06;16.00;99.90
23089;DHT22;11713;48.506;8.966;2022-09-24T13:29:38;16.00;99.90
23089;DHT22;11713;48.506;8.966;2022-09-24T13:32:14;16.00;99.90
23089;DHT22;11713;48.506;8.966;2022-09-24T13:34:44;16.00;99.90
23089;DHT22;11713;48.506;8.966;2022-09-24T13:37:37;16.00;99.90
23089;DHT22;11713;48.506;8.966;2022-09-24T13:40:20;16.00;99.90
23089;DHT22;11713;48.506;8.966;2022-09-24T13:42:50;16.00;99.90
23089;DHT22;11713;48.506;8.966;2022-09-24T13:45:24;16.00;99.90
23089;DHT22;11713;48.506;8.966;2022-09-24T13:48:04;16.00;99.90
23089;DHT22;11713;48.506;8.966;2022-09-24T13:50:48;16.00;99.90
23089;DHT22;11713;48.506;8.966;2022-09-24T13:53:31;16.00;99.90
23089;DHT22;11713;48.506;8.966;2022-09-24T13:56:03;16.00;99.90
23089;DHT22;11713;48.506;8.966;2022-09-24T13:58:37;16.00;99.90
23089;DHT22;11713;48.506;8.966;2022-09-24T14:01:25;15.90;99.90
23089;DHT22;11713;48.506;8.966;2022-09-24T14:03:58;15.90;99.90
23089;DHT22;11713;48.506;8.966;2022-09-24T14:06:37;15.90;99.90
23089;DHT22;11713;48.506;8.966;2022-09-24T14:09:32;15.90;99.90
23089;DHT22;11713;48.506;8.966;2022-09-24T14:12:15;15.90;99.90
23089;DHT22;11713;48.506;8.966;2022-09-24T14:14:44;15.90;99.90
23089;DHT22;11713;48.506;8.966;2022-09-24T14:17:13;15.90;99.90
23089;DHT22;11713;48.506;8.966;2022-09-24T14:19:40;15.90;99.90
23089;DHT22;11713;48.506;8.966;2022-09-24T14:22:20;15.90;99.90
23089;DHT22;11713;48.506;8.966;2022-09-24T14:25:20;15.90;99.90
23089;DHT22;11713;48.506;8.966;2022-09-24T14:27:49;15.90;99.90
23089;DHT22;11713;48.506;8.966;2022-09-24T14:30:19;15.90;99.90
23089;DHT22;11713;48.506;8.966;2022-09-24T14:32:59;16.00;99.90
23089;DHT22;11713;48.506;8.966;2022-09-24T14:35:32;16.00;99.90
23089;DHT22;11713;48.506;8.966;2022-09-24T14:38:27;16.00;99.90
23089;DHT22;11713;48.506;8.966;2022-09-24T14:41:15;16.00;99.90
23089;DHT22;11713;48.506;8.966;2022-09-24T14:43:53;16.00;99.90
23089;DHT22;11713;48.506;8.966;2022-09-24T14:46:24;16.00;99.90
23089;DHT22;11713;48.506;8.966;2022-09-24T14:49:45;16.00;99.90
23089;DHT22;11713;48.506;8.966;2022-09-24T14:52:00;16.00;99.90
23089;DHT22;11713;48.506;8.966;2022-09-24T14:56:54;16.10;99.90
23089;DHT22;11713;48.506;8.966;2022-09-24T14:59:34;16.20;99.90
23089;DHT22;11713;48.506;8.966;2022-09-24T15:02:18;16.20;99.90
23089;DHT22;11713;48.506;8.966;2022-09-24T15:04:58;16.20;99.90
23089;DHT22;11713;48.506;8.966;2022-09-24T15:07:41;16.20;99.90
23089;DHT22;11713;48.506;8.966;2022-09-24T15:10:19;16.10;99.90
23089;DHT22;11713;48.506;8.966;2022-09-24T15:12:51;16.10;99.90
23089;DHT22;11713;48.506;8.966;2022-09-24T15:15:28;16.00;99.90
23089;DHT22;11713;48.506;8.966;2022-09-24T15:17:56;16.00;99.90
23089;DHT22;11713;48.506;8.966;2022-09-24T15:20:22;16.00;99.90
23089;DHT22;11713;48.506;8.966;2022-09-24T15:22:48;16.00;99.90
23089;DHT22;11713;48.506;8.966;2022-09-24T15:25:14;16.00;99.90
23089;DHT22;11713;48.506;8.966;2022-09-24T15:27:41;16.00;99.90
23089;DHT22;11713;48.506;8.966;2022-09-24T15:30:17;16.00;99.90
23089;DHT22;11713;48.506;8.966;2022-09-24T15:32:44;16.00;99.90
23089;DHT22;11713;48.506;8.966;2022-09-24T15:35:14;16.00;99.90
23089;DHT22;11713;48.506;8.966;2022-09-24T15:37:41;16.00;99.90
23089;DHT22;11713;48.506;8.966;2022-09-24T15:42:37;16.00;99.90
23089;DHT22;11713;48.506;8.966;2022-09-24T15:45:16;16.00;99.90
23089;DHT22;11713;48.506;8.966;2022-09-24T15:47:42;16.00;99.90
23089;DHT22;11713;48.506;8.966;2022-09-24T15:50:10;16.00;99.90
23089;DHT22;11713;48.506;8.966;2022-09-24T15:53:02;16.00;99.90
23089;DHT22;11713;48.506;8.966;2022-09-24T15:55:27;16.10;99.90
23089;DHT22;11713;48.506;8.966;2022-09-24T15:57:53;16.00;99.90
23089;DHT22;11713;48.506;8.966;2022-09-24T16:00:23;16.00;99.90
23089;DHT22;11713;48.506;8.966;2022-09-24T16:02:51;16.00;99.90
23089;DHT22;11713;48.506;8.966;2022-09-24T16:05:18;16.00;99.90
23089;DHT22;11713;48.506;8.966;2022-09-24T16:07:44;15.90;99.90
23089;DHT22;11713;48.506;8.966;2022-09-24T16:10:20;15.90;99.90
23089;DHT22;11713;48.506;8.966;2022-09-24T16:12:46;15.80;99.90
23089;DHT22;11713;48.506;8.966;2022-09-24T16:15:14;15.80;99.90
23089;DHT22;11713;48.506;8.966;2022-09-24T16:17:40;15.70;99.90
23089;DHT22;11713;48.506;8.966;2022-09-24T16:20:07;15.70;99.90
23089;DHT22;11713;48.506;8.966;2022-09-24T16:22:34;15.70;99.90
23089;DHT22;11713;48.506;8.966;2022-09-24T16:25:00;15.70;99.90
23089;DHT22;11713;48.506;8.966;2022-09-24T16:27:26;15.60;99.90
23089;DHT22;11713;48.506;8.966;2022-09-24T16:29:52;15.60;99.90
23089;DHT22;11713;48.506;8.966;2022-09-24T16:32:18;15.60;99.90
23089;DHT22;11713;48.506;8.966;2022-09-24T16:34:44;15.60;99.90
23089;DHT22;11713;48.506;8.966;2022-09-24T16:37:10;15.50;99.90
23089;DHT22;11713;48.506;8.966;2022-09-24T16:39:41;15.50;99.90
23089;DHT22;11713;48.506;8.966;2022-09-24T16:42:09;15.50;99.90
23089;DHT22;11713;48.506;8.966;2022-09-24T16:44:35;15.40;99.90
23089;DHT22;11713;48.506;8.966;2022-09-24T16:47:00;15.40;99.90
23089;DHT22;11713;48.506;8.966;2022-09-24T16:49:26;15.40;99.90
23089;DHT22;11713;48.506;8.966;2022-09-24T16:51:52;15.30;99.90
23089;DHT22;11713;48.506;8.966;2022-09-24T16:54:18;15.30;99.90
23089;DHT22;11713;48.506;8.966;2022-09-24T16:56:49;15.20;99.90
23089;DHT22;11713;48.506;8.966;2022-09-24T16:59:17;15.10;99.90
23089;DHT22;11713;48.506;8.966;2022-09-24T17:01:43;15.10;99.90
23089;DHT22;11713;48.506;8.966;2022-09-24T17:04:09;15.00;99.90
23089;DHT22;11713;48.506;8.966;2022-09-24T17:06:35;15.00;99.90
23089;DHT22;11713;48.506;8.966;2022-09-24T17:09:02;15.00;99.90
23089;DHT22;11713;48.506;8.966;2022-09-24T17:11:52;14.90;99.90
23089;DHT22;11713;48.506;8.966;2022-09-24T17:14:18;14.90;99.90
23089;DHT22;11713;48.506;8.966;2022-09-24T17:16:44;14.80;99.90
23089;DHT22;11713;48.506;8.966;2022-09-24T17:19:11;14.80;99.90
23089;DHT22;11713;48.506;8.966;2022-09-24T17:21:39;14.80;99.90
23089;DHT22;11713;48.506;8.966;2022-09-24T17:24:07;14.70;99.90
23089;DHT22;11713;48.506;8.966;2022-09-24T17:26:37;14.70;99.90
23089;DHT22;11713;48.506;8.966;2022-09-24T17:29:04;14.70;99.90
23089;DHT22;11713;48.506;8.966;2022-09-24T17:31:30;14.70;99.90
23089;DHT22;11713;48.506;8.966;2022-09-24T17:33:58;14.70;99.90
23089;DHT22;11713;48.506;8.966;2022-09-24T17:36:25;14.60;99.90
23089;DHT22;11713;48.506;8.966;2022-09-24T17:38:51;14.60;99.90
23089;DHT22;11713;48.506;8.966;2022-09-24T17:41:17;14.60;99.90
23089;DHT22;11713;48.506;8.966;2022-09-24T17:43:44;14.50;99.90
23089;DHT22;11713;48.506;8.966;2022-09-24T17:46:13;14.50;99.90
23089;DHT22;11713;48.506;8.966;2022-09-24T17:48:42;14.50;99.90
23089;DHT22;11713;48.506;8.966;2022-09-24T17:53:45;14.40;99.90
23089;DHT22;11713;48.506;8.966;2022-09-24T17:56:13;14.40;99.90